Time;durP1;ratioP1;P1;durP2;ratioP2;P2;SDS_P1;SDS_P2;PMS_P1;PMS_P2;Temp;Humidity;BMP_temperature;BMP_pressure;BME280_temperature;BME280_humidity;BME280_pressure;Samples;Min_cycle;Max_cycle;Signal;HPM_P1;HPM_P2
2023/09/25 00:00:07;;;;;;;596.67;547.10;;;;;;;21.93;95.79;99644.88;346564;28;1649;-76
2023/09/25 00:00:18;;;;;;;619.20;568.95;;;;;;;21.92;95.60;99637.84;347438;28;959;-76
2023/09/25 00:00:34;;;;;;;629.15;578.70;;;;;;;21.89;95.82;99643.44;348938;28;1342;-75
2023/09/25 00:00:45;;;;;;;628.38;578.10;;;;;;;21.88;96.03;99644.41;348818;28;1570;-75
2023/09/25 00:00:56;;;;;;;627.95;577.50;;;;;;;21.91;96.20;99638.81;349101;28;1588;-75
2023/09/25 00:01:06;;;;;;;626.40;575.80;;;;;;;21.94;95.75;99640.38;346073;28;1281;-75
2023/09/25 00:01:17;;;;;;;629.27;578.63;;;;;;;21.90;95.80;99643.31;348758;28;933;-75
2023/09/25 00:01:27;;;;;;;624.78;574.40;;;;;;;21.92;95.77;99635.19;350093;28;1343;-74
2023/09/25 00:01:37;;;;;;;624.07;573.87;;;;;;;21.86;96.04;99641.03;347393;28;1202;-73
2023/09/25 00:01:48;;;;;;;614.07;564.10;;;;;;;21.89;96.77;99646.94;348739;28;1659;-73
2023/09/25 00:01:58;;;;;;;609.92;560.05;;;;;;;21.95;96.06;99634.06;348837;28;1464;-73
2023/09/25 00:02:09;;;;;;;597.43;547.57;;;;;;;21.94;95.66;99637.72;347488;28;1224;-73
2023/09/25 00:02:19;;;;;;;601.22;551.03;;;;;;;21.95;95.94;99639.41;348688;28;895;-73
2023/09/25 00:02:33;;;;;;;606.50;556.10;;;;;;;21.94;96.01;99637.72;348286;28;1412;-73
2023/09/25 00:02:43;;;;;;;617.13;567.00;;;;;;;21.94;95.63;99637.72;348230;28;898;-73
2023/09/25 00:02:53;;;;;;;622.73;572.43;;;;;;;21.95;95.86;99634.06;349924;28;969;-75
2023/09/25 00:03:04;;;;;;;625.03;574.72;;;;;;;21.94;95.91;99641.22;347669;28;965;-74
2023/09/25 00:03:15;;;;;;;624.97;574.57;;;;;;;21.94;95.82;99638.56;347000;28;1236;-74
2023/09/25 00:03:25;;;;;;;621.00;570.60;;;;;;;21.95;95.78;99637.56;346709;28;1054;-74
2023/09/25 00:03:36;;;;;;;618.67;568.23;;;;;;;21.95;95.64;99640.25;347447;28;1233;-75
2023/09/25 00:03:46;;;;;;;629.40;578.80;;;;;;;21.96;95.60;99635.75;345950;28;1357;-74
2023/09/25 00:03:56;;;;;;;620.23;569.97;;;;;;;21.90;95.94;99642.47;343114;28;886;-74
2023/09/25 00:04:07;;;;;;;615.05;564.85;;;;;;;21.92;95.89;99641.34;343934;28;1148;-75
2023/09/25 00:04:17;;;;;;;602.33;552.57;;;;;;;21.95;96.08;99634.91;340802;28;1894;-75
2023/09/25 00:04:28;;;;;;;600.95;551.17;;;;;;;21.97;95.77;99638.28;342711;28;1017;-75
2023/09/25 00:04:39;;;;;;;606.38;556.47;;;;;;;22.00;95.68;99638.03;340902;28;1449;-75
2023/09/25 00:04:49;;;;;;;603.77;553.87;;;;;;;22.02;95.58;99638.75;343248;28;822;-75
2023/09/25 00:04:59;;;;;;;607.05;557.15;;;;;;;21.99;95.42;99638.16;343923;28;1277;-75
2023/09/25 00:05:10;;;;;;;605.30;555.43;;;;;;;22.00;95.59;99638.03;343693;28;1121;-75
2023/09/25 00:05:20;;;;;;;605.45;555.60;;;;;;;22.01;95.63;99638.88;342194;28;1915;-74
2023/09/25 00:05:32;;;;;;;605.17;555.23;;;;;;;22.04;95.48;99639.47;342377;28;1771;-74
2023/09/25 00:05:42;;;;;;;602.33;552.42;;;;;;;22.06;95.07;99640.19;343130;28;856;-75
2023/09/25 00:05:54;;;;;;;603.47;553.50;;;;;;;22.05;95.09;99641.16;341869;28;1173;-75
2023/09/25 00:06:04;;;;;;;601.67;551.67;;;;;;;22.01;95.32;99641.53;341021;28;1369;-74
2023/09/25 00:06:15;;;;;;;605.42;555.42;;;;;;;21.94;95.43;99648.38;342938;28;1252;-74
2023/09/25 00:06:25;;;;;;;614.13;564.00;;;;;;;21.89;95.98;99646.09;338680;28;1362;-75
2023/09/25 00:06:36;;;;;;;625.87;575.57;;;;;;;21.87;96.32;99637.41;338073;29;1124;-75
2023/09/25 00:06:46;;;;;;;642.72;592.00;;;;;;;21.82;96.50;99639.63;340162;29;1722;-76
2023/09/25 00:06:56;;;;;;;646.30;595.50;;;;;;;21.81;96.30;99644.09;337916;29;1551;-75
2023/09/25 00:07:07;;;;;;;658.45;607.30;;;;;;;21.81;96.57;99638.78;336645;29;1911;-75
2023/09/25 00:07:17;;;;;;;649.40;598.50;;;;;;;21.73;96.84;99640.41;331715;29;1196;-75
2023/09/25 00:07:28;;;;;;;654.27;603.13;;;;;;;21.69;97.20;99639.00;332400;29;1709;-74
2023/09/25 00:07:39;;;;;;;654.27;603.17;;;;;;;21.70;97.37;99646.84;331142;29;1757;-74
2023/09/25 00:07:50;;;;;;;660.65;609.40;;;;;;;21.74;97.26;99639.44;329050;30;1547;-74
2023/09/25 00:08:00;;;;;;;646.07;595.17;;;;;;;21.74;96.79;99647.44;333778;29;1283;-74
2023/09/25 00:08:11;;;;;;;630.85;580.35;;;;;;;21.77;97.11;99639.19;332348;29;1431;-74
2023/09/25 00:08:21;;;;;;;617.60;567.40;;;;;;;21.80;96.82;99638.91;331630;29;1342;-74
2023/09/25 00:08:32;;;;;;;622.08;571.65;;;;;;;21.83;96.87;99636.81;335123;29;1863;-74
2023/09/25 00:08:42;;;;;;;615.60;564.80;;;;;;;21.88;96.80;99639.09;333301;29;2412;-73
2023/09/25 00:08:52;;;;;;;622.63;571.67;;;;;;;21.90;96.18;99637.13;333473;29;4747;-73
2023/09/25 00:09:03;;;;;;;623.30;572.57;;;;;;;21.90;96.63;99642.47;338549;29;5320;-73
2023/09/25 00:09:13;;;;;;;629.75;579.22;;;;;;;21.91;96.49;99642.34;337513;29;2131;-75
2023/09/25 00:09:24;;;;;;;625.47;575.00;;;;;;;21.94;96.33;99638.56;340281;28;4732;-75
2023/09/25 00:09:34;;;;;;;627.30;576.80;;;;;;;21.95;96.04;99639.41;337883;29;1035;-75
2023/09/25 00:09:44;;;;;;;627.77;577.33;;;;;;;21.85;96.40;99645.53;331950;29;1327;-75
2023/09/25 00:09:55;;;;;;;633.17;582.63;;;;;;;21.77;96.41;99636.50;333470;29;1210;-74
2023/09/25 00:10:07;;;;;;;637.72;587.03;;;;;;;21.71;96.58;99645.03;332772;29;1439;-74
2023/09/25 00:10:17;;;;;;;638.78;588.17;;;;;;;21.65;97.36;99641.09;332851;29;2279;-74
2023/09/25 00:10:29;;;;;;;635.20;584.67;;;;;;;21.64;97.75;99643.91;333025;29;1996;-74
2023/09/25 00:10:41;;;;;;;641.03;590.20;;;;;;;21.64;97.51;99643.91;332142;29;2522;-74
2023/09/25 00:10:52;;;;;;;650.60;599.50;;;;;;;21.64;97.90;99636.75;329179;30;1335;-75
2023/09/25 00:11:03;;;;;;;650.72;599.65;;;;;;;21.66;97.70;99644.63;325691;30;1341;-74
2023/09/25 00:11:14;;;;;;;643.20;592.38;;;;;;;21.63;97.94;99644.88;325903;30;2194;-74
2023/09/25 00:11:24;;;;;;;638.00;587.35;;;;;;;21.62;98.11;99637.84;324171;30;2787;-75
2023/09/25 00:11:34;;;;;;;638.47;587.87;;;;;;;21.61;97.72;99641.50;323172;30;1300;-74
2023/09/25 00:11:45;;;;;;;631.67;581.20;;;;;;;21.64;98.16;99649.22;322867;30;1838;-74
2023/09/25 00:11:55;;;;;;;629.17;578.73;;;;;;;21.65;98.10;99640.25;323918;30;1424;-74
2023/09/25 00:12:06;;;;;;;638.45;587.83;;;;;;;21.59;98.01;99638.97;323097;30;1197;-76
2023/09/25 00:12:16;;;;;;;648.53;597.60;;;;;;;21.60;98.29;99637.16;324833;30;2129;-75
2023/09/25 00:12:27;;;;;;;665.38;613.85;;;;;;;21.63;98.23;99640.38;322664;30;2641;-75
2023/09/25 00:12:38;;;;;;;672.47;620.73;;;;;;;21.67;98.19;99643.59;321505;30;2805;-75
2023/09/25 00:12:48;;;;;;;692.20;639.77;;;;;;;21.69;98.10;99644.31;323704;30;1984;-74
2023/09/25 00:12:59;;;;;;;705.42;652.47;;;;;;;21.72;97.60;99644.06;321868;30;4136;-74
2023/09/25 00:13:09;;;;;;;719.77;666.33;;;;;;;21.74;97.43;99637.63;319688;30;4467;-75
2023/09/25 00:13:21;;;;;;;737.75;683.42;;;;;;;21.78;97.07;99640.88;315050;31;1274;-74
2023/09/25 00:13:31;;;;;;;758.40;702.65;;;;;;;21.81;97.23;99638.78;317779;30;2933;-74
2023/09/25 00:13:41;;;;;;;771.73;715.30;;;;;;;21.82;96.67;99636.97;319060;30;3258;-74
2023/09/25 00:13:52;;;;;;;794.10;735.87;;;;;;;21.86;96.81;99635.72;318665;30;1627;-74
2023/09/25 00:14:02;;;;;;;776.83;718.15;;;;;;;21.89;96.78;99643.44;312812;31;1851;-74
2023/09/25 00:14:13;;;;;;;639.77;585.50;;;;;;;21.90;96.37;99653.13;313474;31;1964;-74
2023/09/25 00:14:24;;;;;;;480.20;432.83;;;;;;;21.76;96.80;99640.16;313521;31;2855;-75
2023/09/25 00:14:34;;;;;;;397.73;353.90;;;;;;;21.67;97.54;99639.13;310481;31;1756;-74
2023/09/25 00:14:45;;;;;;;398.73;354.87;;;;;;;21.64;97.68;99641.22;309690;31;3598;-75
2023/09/25 00:14:55;;;;;;;394.88;350.60;;;;;;;21.60;97.61;99639.81;307877;31;3919;-75
2023/09/25 00:15:06;;;;;;;400.00;355.93;;;;;;;21.53;97.99;99643.00;308433;32;891;-75
2023/09/25 00:15:16;;;;;;;398.30;354.25;;;;;;;21.53;98.10;99643.00;311856;31;4823;-76
2023/09/25 00:15:27;;;;;;;397.48;352.92;;;;;;;21.52;98.44;99649.28;308793;31;5465;-75
2023/09/25 00:15:44;;;;;;;398.77;352.30;;;;;;;21.51;98.61;99644.94;306538;31;3983;-74
2023/09/25 00:15:59;;;;;;;401.67;357.50;;;;;;;21.52;98.54;99645.78;307386;31;4927;-74
2023/09/25 00:16:13;;;;;;;411.90;367.40;;;;;;;21.58;98.52;99646.13;308312;31;3327;-74
2023/09/25 00:16:24;;;;;;;416.95;372.15;;;;;;;21.62;98.57;99637.84;310136;31;3134;-74
2023/09/25 00:16:34;;;;;;;412.75;368.02;;;;;;;21.57;98.19;99641.75;308498;31;1706;-75
2023/09/25 00:16:44;;;;;;;407.93;363.37;;;;;;;21.53;98.52;99645.66;307923;31;4380;-75
2023/09/25 00:16:55;;;;;;;406.92;362.23;;;;;;;21.53;98.21;99645.66;305989;32;5427;-75
2023/09/25 00:17:05;;;;;;;403.97;359.33;;;;;;;21.49;98.46;99641.56;302982;32;1266;-74
2023/09/25 00:17:16;;;;;;;403.25;358.65;;;;;;;21.49;98.58;99641.56;300974;32;5276;-74
2023/09/25 00:17:27;;;;;;;403.53;359.03;;;;;;;21.49;98.51;99644.22;300276;32;6187;-74
2023/09/25 00:17:37;;;;;;;412.52;367.80;;;;;;;21.48;99.04;99645.22;303104;32;7035;-74
2023/09/25 00:17:48;;;;;;;414.67;369.88;;;;;;;21.48;99.09;99645.22;304248;32;851;-74
2023/09/25 00:17:59;;;;;;;420.10;375.20;;;;;;;21.53;98.56;99645.66;300587;32;5157;-74
2023/09/25 00:18:09;;;;;;;419.92;374.95;;;;;;;21.56;98.74;99650.72;298659;32;6531;-75
2023/09/25 00:18:20;;;;;;;417.80;372.93;;;;;;;21.61;98.29;99641.50;295255;33;3051;-74
2023/09/25 00:18:30;;;;;;;416.37;371.37;;;;;;;21.65;98.26;99640.25;297487;33;4838;-75
2023/09/25 00:18:41;;;;;;;411.20;366.43;;;;;;;21.68;98.04;99638.16;293930;33;5160;-75
2023/09/25 00:18:51;;;;;;;412.02;367.15;;;;;;;21.72;98.05;99644.06;294055;33;886;-75
2023/09/25 00:19:03;;;;;;;406.87;362.40;;;;;;;21.75;97.66;99639.31;293105;33;6416;-74
2023/09/25 00:19:15;;;;;;;409.30;364.92;;;;;;;21.80;97.91;99650.41;291680;33;7256;-75
2023/09/25 00:19:26;;;;;;;410.08;365.67;;;;;;;21.79;96.97;99650.53;288424;34;7965;-75
2023/09/25 00:19:36;;;;;;;412.08;367.55;;;;;;;21.80;97.49;99649.56;287219;34;1479;-75
2023/09/25 00:19:46;;;;;;;418.60;373.67;;;;;;;21.80;97.37;99646.91;284008;34;8829;-75
2023/09/25 00:19:57;;;;;;;424.80;379.47;;;;;;;21.82;96.93;99642.28;285293;34;10353;-75
2023/09/25 00:20:10;;;;;;;421.63;376.55;;;;;;;21.81;97.20;99643.25;288426;33;7249;-75
2023/09/25 00:20:24;;;;;;;421.45;376.63;;;;;;;21.84;96.62;99643.00;291124;33;1615;-75
2023/09/25 00:20:34;;;;;;;424.15;379.10;;;;;;;21.88;97.21;99649.75;286176;34;2028;-75
2023/09/25 00:20:45;;;;;;;429.00;383.87;;;;;;;21.86;96.82;99643.72;279692;34;6783;-75
2023/09/25 00:20:55;;;;;;;428.67;383.58;;;;;;;21.88;96.76;99641.75;278519;34;7663;-75
2023/09/25 00:21:06;;;;;;;418.17;373.53;;;;;;;21.90;96.46;99642.47;281782;35;907;-75
2023/09/25 00:23:02;;;;;;;386.06;328.91;;;;;;;21.83;97.04;99642.16;2492149;27;20493;-74
2023/09/25 00:23:12;;;;;;;406.67;362.50;;;;;;;21.84;96.67;99645.66;351652;28;1435;-74
2023/09/25 00:23:23;;;;;;;400.38;356.40;;;;;;;21.85;96.92;99642.03;350290;28;825;-74
2023/09/25 00:23:33;;;;;;;395.07;349.97;;;;;;;21.88;96.36;99645.25;347350;28;1397;-74
2023/09/25 00:23:43;;;;;;;397.52;353.45;;;;;;;21.90;96.57;99642.47;347545;28;917;-74
2023/09/25 00:23:54;;;;;;;402.60;358.50;;;;;;;21.89;96.38;99633.63;347294;28;839;-74
2023/09/25 00:24:05;;;;;;;402.00;357.90;;;;;;;21.87;96.42;99648.91;347406;28;836;-74
2023/09/25 00:24:15;;;;;;;402.70;358.60;;;;;;;21.79;96.63;99638.06;349168;28;1430;-74
2023/09/25 00:24:25;;;;;;;405.38;361.15;;;;;;;21.74;96.89;99642.09;347201;28;1384;-75
2023/09/25 00:24:36;;;;;;;399.20;355.23;;;;;;;21.71;97.08;99642.38;347332;28;960;-75
2023/09/25 00:24:47;;;;;;;399.10;354.95;;;;;;;21.68;97.46;99642.63;346535;28;1078;-74
2023/09/25 00:24:57;;;;;;;403.73;359.53;;;;;;;21.73;97.37;99651.06;346454;28;1631;-74
2023/09/25 00:25:08;;;;;;;406.92;362.67;;;;;;;21.76;97.72;99643.66;348749;28;905;-73
2023/09/25 00:25:23;;;;;;;400.90;355.73;;;;;;;21.71;97.42;99643.22;349614;28;1830;-74
2023/09/25 00:25:33;;;;;;;399.17;349.08;;;;;;;21.66;97.33;99644.63;347368;28;1049;-74
2023/09/25 00:25:43;;;;;;;399.92;351.75;;;;;;;21.62;97.82;99644.03;346075;28;919;-74
2023/09/25 00:26:03;;;;;;;398.73;354.70;;;;;;;21.64;97.98;99642.09;345922;28;892;-73
2023/09/25 00:26:14;;;;;;;395.10;348.85;;;;;;;21.65;97.99;99642.94;343292;28;924;-73
2023/09/25 00:26:24;;;;;;;395.90;352.00;;;;;;;21.65;97.97;99637.59;346404;28;1880;-73
2023/09/25 00:26:35;;;;;;;401.83;357.63;;;;;;;21.64;97.70;99641.22;346142;28;835;-73
2023/09/25 00:26:46;;;;;;;404.55;360.33;;;;;;;21.66;97.95;99641.94;347469;28;1639;-73
2023/09/25 00:26:56;;;;;;;401.25;356.98;;;;;;;21.71;97.68;99642.38;345846;28;1081;-74
2023/09/25 00:27:07;;;;;;;398.97;354.80;;;;;;;21.73;97.37;99633.25;344653;28;1386;-75
2023/09/25 00:27:17;;;;;;;397.60;350.73;;;;;;;21.75;97.58;99638.47;342236;28;2939;-74
2023/09/25 00:27:27;;;;;;;402.30;357.90;;;;;;;21.77;97.46;99639.19;344591;28;4697;-74
2023/09/25 00:27:38;;;;;;;404.67;360.27;;;;;;;21.77;97.05;99641.84;346351;28;3128;-74
2023/09/25 00:27:48;;;;;;;411.83;367.23;;;;;;;21.78;97.58;99640.88;347199;28;3291;-74
2023/09/25 00:27:59;;;;;;;410.52;365.98;;;;;;;21.75;97.25;99639.31;347888;28;2517;-74
2023/09/25 00:28:10;;;;;;;408.85;364.35;;;;;;;21.74;97.38;99636.78;344617;28;1315;-75
2023/09/25 00:28:20;;;;;;;406.23;361.83;;;;;;;21.75;97.12;99639.31;343159;28;1480;-75
2023/09/25 00:28:31;;;;;;;402.07;357.80;;;;;;;21.74;97.23;99637.63;345958;28;950;-75
2023/09/25 00:28:42;;;;;;;397.52;352.65;;;;;;;21.75;97.33;99639.31;346020;28;1304;-75
2023/09/25 00:28:53;;;;;;;394.48;347.27;;;;;;;21.75;97.21;99633.97;344689;28;1418;-75
2023/09/25 00:29:03;;;;;;;396.20;352.37;;;;;;;21.75;97.53;99635.78;345913;28;1357;-74
2023/09/25 00:29:14;;;;;;;399.90;355.92;;;;;;;21.79;97.09;99637.22;344457;28;1673;-75
2023/09/25 00:29:24;;;;;;;407.77;363.47;;;;;;;21.82;96.96;99639.63;342381;28;1309;-75
2023/09/25 00:29:35;;;;;;;407.88;363.55;;;;;;;21.86;96.99;99628.56;343576;28;923;-74
2023/09/25 00:29:45;;;;;;;404.87;360.77;;;;;;;21.85;97.03;99639.34;344487;28;2104;-74
2023/09/25 00:29:56;;;;;;;409.65;365.27;;;;;;;21.87;96.80;99634.72;341866;28;1106;-74
2023/09/25 00:30:08;;;;;;;415.42;370.92;;;;;;;21.89;96.37;99635.44;342523;28;1989;-74
2023/09/25 00:30:19;;;;;;;413.75;369.23;;;;;;;21.91;96.69;99633.50;342028;28;860;-74
2023/09/25 00:30:29;;;;;;;407.08;362.85;;;;;;;21.95;96.39;99631.41;343414;28;1592;-75
2023/09/25 00:30:40;;;;;;;412.87;368.37;;;;;;;21.98;96.46;99634.66;342403;28;939;-74
2023/09/25 00:30:50;;;;;;;416.52;372.10;;;;;;;22.00;96.47;99632.69;340735;28;1533;-74
2023/09/25 00:31:01;;;;;;;415.30;370.87;;;;;;;21.98;96.21;99639.97;336735;29;1257;-74
2023/09/25 00:31:11;;;;;;;415.52;371.00;;;;;;;21.97;96.00;99643.63;339879;28;1385;-75
2023/09/25 00:31:21;;;;;;;416.57;371.93;;;;;;;21.95;96.14;99636.72;340279;28;1340;-75
2023/09/25 00:31:32;;;;;;;415.10;370.47;;;;;;;21.89;95.87;99632.78;335824;29;1269;-75
2023/09/25 00:31:42;;;;;;;412.40;367.80;;;;;;;21.86;96.01;99638.38;334422;29;1196;-75
2023/09/25 00:31:53;;;;;;;413.87;369.27;;;;;;;21.85;96.62;99645.53;331744;29;2013;-74
2023/09/25 00:32:03;;;;;;;412.08;367.58;;;;;;;21.81;96.33;99638.78;336002;29;1083;-74
2023/09/25 00:32:14;;;;;;;410.07;365.60;;;;;;;21.74;96.78;99639.44;339117;29;1242;-74
2023/09/25 00:32:24;;;;;;;401.02;356.73;;;;;;;21.68;97.24;99638.16;333137;29;1319;-74
2023/09/25 00:32:35;;;;;;;399.33;353.70;;;;;;;21.69;97.36;99639.84;331595;29;1196;-74
2023/09/25 00:32:45;;;;;;;405.77;361.42;;;;;;;21.72;97.62;99630.72;335376;29;962;-74
2023/09/25 00:32:56;;;;;;;410.37;366.03;;;;;;;21.74;97.46;99632.28;335243;29;1488;-75
2023/09/25 00:33:06;;;;;;;413.27;368.95;;;;;;;21.78;97.01;99633.72;329993;29;1847;-75
2023/09/25 00:33:16;;;;;;;406.50;362.23;;;;;;;21.84;97.21;99632.34;326734;30;1862;-75
2023/09/25 00:33:27;;;;;;;402.80;358.48;;;;;;;21.85;97.18;99639.34;329701;29;1836;-74
2023/09/25 00:33:37;;;;;;;397.20;351.33;;;;;;;21.85;96.64;99634.03;332353;29;1574;-74
2023/09/25 00:33:47;;;;;;;399.80;355.57;;;;;;;21.82;96.57;99635.13;329185;30;1065;-73
2023/09/25 00:33:58;;;;;;;406.38;361.95;;;;;;;21.77;96.86;99633.84;330569;29;1639;-74
2023/09/25 00:34:08;;;;;;;409.93;365.23;;;;;;;21.72;96.95;99633.41;332157;29;1446;-74
2023/09/25 00:34:19;;;;;;;412.42;367.80;;;;;;;21.69;97.62;99631.00;332861;29;1487;-74
2023/09/25 00:34:29;;;;;;;412.50;367.97;;;;;;;21.69;97.65;99639.00;335216;29;1321;-74
2023/09/25 00:34:40;;;;;;;413.75;369.25;;;;;;;21.70;97.33;99635.34;335444;29;1202;-74
2023/09/25 00:34:50;;;;;;;413.00;368.57;;;;;;;21.71;97.39;99637.88;334274;29;1288;-74
2023/09/25 00:35:05;;;;;;;407.05;362.77;;;;;;;21.68;97.40;99631.97;326389;29;1892;-74
2023/09/25 00:35:15;;;;;;;404.88;360.60;;;;;;;21.62;97.53;99629.88;328598;29;1985;-74
2023/09/25 00:35:26;;;;;;;404.20;359.90;;;;;;;21.62;97.54;99637.84;331834;29;2205;-75
2023/09/25 00:35:36;;;;;;;406.83;362.33;;;;;;;21.63;97.87;99631.56;330072;29;2798;-74
2023/09/25 00:35:46;;;;;;;409.27;364.67;;;;;;;21.65;97.88;99638.44;328001;30;782;-74
2023/09/25 00:35:57;;;;;;;405.07;360.50;;;;;;;21.67;97.87;99636.47;326854;30;2345;-74
2023/09/25 00:36:07;;;;;;;403.60;359.17;;;;;;;21.69;97.57;99633.66;325544;30;2335;-73
2023/09/25 00:36:18;;;;;;;406.00;361.47;;;;;;;21.69;97.80;99628.34;325553;30;1195;-73
2023/09/25 00:36:28;;;;;;;408.40;363.80;;;;;;;21.68;97.84;99631.97;326019;30;2869;-75
2023/09/25 00:36:38;;;;;;;405.55;360.85;;;;;;;21.67;97.74;99643.59;325204;30;4870;-74
2023/09/25 00:36:49;;;;;;;405.73;361.13;;;;;;;21.67;97.55;99635.63;321683;30;4980;-74
2023/09/25 00:36:59;;;;;;;405.05;360.35;;;;;;;21.64;97.66;99631.44;322298;30;2221;-74
2023/09/25 00:37:10;;;;;;;405.00;360.57;;;;;;;21.64;98.08;99630.59;321489;30;2662;-75
2023/09/25 00:37:21;;;;;;;401.25;357.02;;;;;;;21.66;97.50;99633.97;317575;31;873;-74
2023/09/25 00:37:31;;;;;;;404.55;360.42;;;;;;;21.68;97.89;99639.97;315262;31;1516;-74
2023/09/25 00:37:42;;;;;;;408.60;364.30;;;;;;;21.64;97.88;99634.09;315481;31;3585;-74
2023/09/25 00:37:52;;;;;;;409.23;364.90;;;;;;;21.56;97.80;99634.75;310720;31;3564;-74
2023/09/25 00:38:04;;;;;;;401.17;357.00;;;;;;;21.56;97.79;99626.75;311683;31;798;-74
2023/09/25 00:38:14;;;;;;;396.05;349.33;;;;;;;21.62;97.96;99627.22;310489;31;2898;-75
2023/09/25 00:38:24;;;;;;;400.17;355.80;;;;;;;21.64;97.83;99635.91;305454;31;2924;-74
2023/09/25 00:38:35;;;;;;;409.83;365.23;;;;;;;21.66;97.91;99636.63;308390;32;1377;-74
2023/09/25 00:38:45;;;;;;;419.27;374.40;;;;;;;21.65;98.03;99642.94;307789;31;2118;-76
2023/09/25 00:38:56;;;;;;;418.30;373.53;;;;;;;21.64;97.96;99631.44;307169;31;2372;-74
2023/09/25 00:39:07;;;;;;;408.92;364.40;;;;;;;21.68;98.09;99634.63;307927;31;3129;-75
2023/09/25 00:39:18;;;;;;;407.27;362.45;;;;;;;21.72;97.63;99633.41;306334;32;923;-74
2023/09/25 00:39:28;;;;;;;403.90;356.43;;;;;;;21.76;97.42;99634.81;307262;31;3782;-74
2023/09/25 00:39:39;;;;;;;412.45;367.35;;;;;;;21.78;97.46;99632.88;306117;31;4338;-74
2023/09/25 00:39:50;;;;;;;409.60;364.92;;;;;;;21.81;97.11;99640.59;304032;32;943;-73
2023/09/25 00:40:12;;;;;;;417.10;372.43;;;;;;;21.86;97.01;99635.72;301757;32;5670;-74
2023/09/25 00:40:24;;;;;;;418.00;373.10;;;;;;;21.83;96.86;99630.66;298998;32;4305;-74
2023/09/25 00:40:36;;;;;;;418.27;373.27;;;;;;;21.85;96.57;99634.88;300986;32;893;-74
2023/09/25 00:40:47;;;;;;;411.17;366.38;;;;;;;21.81;96.85;99632.59;298010;33;1004;-75
2023/09/25 00:40:57;;;;;;;407.58;363.00;;;;;;;21.83;97.05;99638.66;295884;33;3017;-74
2023/09/25 00:41:09;;;;;;;405.07;360.70;;;;;;;21.86;96.49;99635.72;295049;33;3686;-74
2023/09/25 00:41:19;;;;;;;404.48;360.15;;;;;;;21.88;96.45;99639.94;296023;33;1450;-74
2023/09/25 00:41:29;;;;;;;406.67;362.15;;;;;;;21.89;96.45;99630.13;294150;33;4564;-74
2023/09/25 00:41:40;;;;;;;416.73;371.93;;;;;;;21.90;96.56;99642.47;290550;33;5646;-74
2023/09/25 00:41:50;;;;;;;422.70;377.80;;;;;;;21.87;96.79;99635.59;289847;34;2016;-74
2023/09/25 00:42:01;;;;;;;420.47;375.73;;;;;;;21.87;96.59;99634.72;290061;33;6727;-74
2023/09/25 00:42:11;;;;;;;410.80;366.40;;;;;;;21.85;96.72;99631.38;287039;34;7175;-74
2023/09/25 00:42:22;;;;;;;411.38;366.90;;;;;;;21.83;96.95;99638.66;285394;34;7217;-74
2023/09/25 00:42:32;;;;;;;406.20;361.98;;;;;;;21.86;96.72;99638.38;286410;34;1341;-74
2023/09/25 00:42:49;;;;;;;404.57;360.43;;;;;;;21.91;96.48;99633.50;285760;34;6640;-74
2023/09/25 00:42:59;;;;;;;403.23;359.08;;;;;;;21.93;96.69;99639.53;287220;34;5232;-74
2023/09/25 00:43:11;;;;;;;400.00;355.90;;;;;;;21.88;96.45;99639.94;288126;34;4160;-74
2023/09/25 00:43:22;;;;;;;399.15;354.95;;;;;;;21.82;96.35;99636.97;283260;34;5133;-74
2023/09/25 00:43:32;;;;;;;404.95;360.45;;;;;;;21.81;96.93;99632.59;279851;35;1879;-74
2023/09/25 00:43:43;;;;;;;405.13;360.70;;;;;;;21.79;96.79;99638.06;279363;35;6511;-75
2023/09/25 00:43:53;;;;;;;408.08;363.58;;;;;;;21.82;96.73;99637.81;276007;35;8040;-74
2023/09/25 00:44:03;;;;;;;409.27;364.80;;;;;;;21.88;96.42;99633.75;278825;35;914;-74
2023/09/25 00:44:16;;;;;;;414.65;369.85;;;;;;;21.91;96.82;99633.50;278214;35;9283;-74
2023/09/25 00:44:26;;;;;;;417.98;373.15;;;;;;;21.94;96.44;99633.22;278510;35;9550;-74
2023/09/25 00:44:37;;;;;;;413.97;369.27;;;;;;;21.97;96.40;99635.63;275656;35;9887;-74
2023/09/25 00:44:47;;;;;;;417.15;372.50;;;;;;;21.95;96.41;99634.91;274974;35;1544;-74
2023/09/25 00:44:57;;;;;;;415.53;370.90;;;;;;;21.92;96.29;99640.50;274193;35;9460;-74
2023/09/25 00:45:09;;;;;;;415.38;370.77;;;;;;;21.91;96.06;99642.34;273836;35;7813;-74
2023/09/25 00:45:20;;;;;;;418.65;373.95;;;;;;;21.91;96.48;99641.50;274059;36;1319;-74
2023/09/25 00:47:09;;;;;;;388.66;333.30;;;;;;;21.97;95.92;99632.97;2487687;27;20552;-75
2023/09/25 00:47:19;;;;;;;400.00;352.83;;;;;;;21.97;95.77;99635.63;351526;28;938;-75
2023/09/25 00:47:29;;;;;;;396.43;350.00;;;;;;;22.00;96.01;99642.50;348693;28;1845;-75
2023/09/25 00:47:43;;;;;;;395.83;350.57;;;;;;;22.00;95.40;99638.03;348817;28;825;-75
2023/09/25 00:47:54;;;;;;;397.02;351.40;;;;;;;22.00;95.45;99638.03;347604;28;1279;-74
2023/09/25 00:48:04;;;;;;;400.30;356.13;;;;;;;22.02;95.78;99638.75;348153;28;1498;-74
2023/09/25 00:48:28;;;;;;;399.77;355.73;;;;;;;22.06;95.40;99637.53;348808;28;1208;-74
2023/09/25 00:48:42;;;;;;;406.58;362.35;;;;;;;22.06;95.52;99642.00;350149;28;852;-74
2023/09/25 00:48:52;;;;;;;408.88;364.63;;;;;;;22.08;95.57;99643.56;347170;28;1286;-74
2023/09/25 00:49:03;;;;;;;404.90;360.70;;;;;;;22.10;95.29;99636.25;346631;28;1900;-74
2023/09/25 00:49:13;;;;;;;404.33;360.08;;;;;;;22.13;95.41;99637.78;348690;28;1196;-74
2023/09/25 00:49:24;;;;;;;411.30;366.90;;;;;;;22.15;95.04;99639.34;347191;28;1729;-74
2023/09/25 00:49:34;;;;;;;414.13;369.63;;;;;;;22.16;94.62;99643.69;347814;28;1077;-74
2023/09/25 00:49:46;;;;;;;419.42;374.75;;;;;;;22.10;94.96;99636.25;346103;28;1820;-74
2023/09/25 00:49:56;;;;;;;416.05;371.45;;;;;;;22.01;95.09;99641.53;347555;28;1296;-75
2023/09/25 00:50:07;;;;;;;412.73;368.13;;;;;;;21.94;95.55;99635.03;347167;28;1699;-75
2023/09/25 00:50:18;;;;;;;404.70;360.40;;;;;;;21.89;96.25;99646.09;346000;28;1228;-75
2023/09/25 00:50:31;;;;;;;400.33;356.10;;;;;;;21.90;96.25;99645.13;347287;28;1486;-74
2023/09/25 00:50:42;;;;;;;404.10;359.88;;;;;;;21.93;96.17;99636.88;346279;28;1240;-75
2023/09/25 00:50:54;;;;;;;412.88;368.55;;;;;;;21.93;96.33;99639.53;349326;28;1311;-74
2023/09/25 00:51:07;;;;;;;415.52;371.23;;;;;;;21.89;95.96;99646.94;348402;28;1887;-74
2023/09/25 00:51:18;;;;;;;412.52;368.17;;;;;;;21.88;96.38;99644.41;346570;28;4764;-74
2023/09/25 00:51:28;;;;;;;412.42;368.00;;;;;;;21.86;96.43;99641.88;348097;28;1575;-74
2023/09/25 00:51:38;;;;;;;409.00;364.57;;;;;;;21.90;96.40;99634.47;347415;28;1161;-75
2023/09/25 00:51:49;;;;;;;408.92;364.42;;;;;;;21.85;96.09;99636.69;346071;28;1608;-75
2023/09/25 00:51:59;;;;;;;412.77;368.07;;;;;;;21.82;96.27;99632.47;345984;28;1355;-74
2023/09/25 00:52:11;;;;;;;412.80;368.20;;;;;;;21.79;96.77;99635.41;344516;28;1288;-74
2023/09/25 00:52:21;;;;;;;414.23;369.65;;;;;;;21.79;96.47;99640.72;346205;28;909;-74
2023/09/25 00:52:32;;;;;;;416.00;371.40;;;;;;;21.82;96.63;99640.47;345918;28;1419;-75
2023/09/25 00:52:43;;;;;;;410.05;365.65;;;;;;;21.87;96.81;99642.72;344660;28;1413;-75
2023/09/25 00:52:54;;;;;;;407.30;362.83;;;;;;;21.90;96.50;99642.47;343271;28;948;-75
2023/09/25 00:53:08;;;;;;;406.55;362.20;;;;;;;21.92;96.20;99644.03;345401;28;1453;-75
2023/09/25 00:53:18;;;;;;;409.92;365.38;;;;;;;21.95;96.15;99637.56;346098;28;1555;-74
2023/09/25 00:53:29;;;;;;;407.70;363.20;;;;;;;21.96;96.37;99641.94;345631;28;1505;-74
2023/09/25 00:53:41;;;;;;;413.60;368.85;;;;;;;21.99;95.82;99644.34;340576;29;1399;-74
2023/09/25 00:53:51;;;;;;;418.08;373.35;;;;;;;22.01;95.69;99636.19;343897;28;1408;-74